createdAt,value
2022-08-16T00:00:04.472Z,5.20
2022-08-16T00:01:01.106Z,5.20
2022-08-16T00:02:00.156Z,5.10
2022-08-16T00:03:00.083Z,4.80
2022-08-16T00:04:00.077Z,4.70
2022-08-16T00:05:00.342Z,4.70
2022-08-16T00:06:00.065Z,5.40
2022-08-16T00:07:00.063Z,5.10
2022-08-16T00:08:00.083Z,5.60
2022-08-16T00:09:00.020Z,5.20
2022-08-16T00:10:00.143Z,5.30
2022-08-16T00:11:00.013Z,5.30
2022-08-16T00:12:00.011Z,5.60
2022-08-16T00:13:00.009Z,6.60
2022-08-16T00:13:59.973Z,5.40
2022-08-16T00:14:59.974Z,5.60
2022-08-16T00:16:00.017Z,5.20
2022-08-16T00:17:15.777Z,5.50
2022-08-16T00:18:00.960Z,5.30
2022-08-16T00:18:59.964Z,4.90
2022-08-16T00:19:59.951Z,5.30
2022-08-16T00:20:59.913Z,5.40
2022-08-16T00:22:03.011Z,5.20
2022-08-16T00:23:00.871Z,6.00
2022-08-16T00:23:59.865Z,5.60
2022-08-16T00:25:00.925Z,5.90
2022-08-16T00:26:34.746Z,5.40
2022-08-16T00:27:00.935Z,5.70
2022-08-16T00:27:59.820Z,6.60
2022-08-16T00:28:59.800Z,5.80
2022-08-16T00:30:08.700Z,6.00
2022-08-16T00:31:01.034Z,5.80
2022-08-16T00:32:01.115Z,6.40
2022-08-16T00:33:00.764Z,6.00
2022-08-16T00:33:59.748Z,6.50
2022-08-16T00:35:00.689Z,6.60
2022-08-16T00:36:00.292Z,6.40
2022-08-16T00:36:59.713Z,6.60
2022-08-16T00:37:59.713Z,6.80
2022-08-16T00:38:59.685Z,6.40
2022-08-16T00:39:59.794Z,6.00
2022-08-16T00:40:59.692Z,6.20
2022-08-16T00:41:59.660Z,5.60
2022-08-16T00:42:59.653Z,5.70
2022-08-16T00:43:59.631Z,6.00
2022-08-16T00:44:59.702Z,6.20
2022-08-16T00:46:00.629Z,5.90
2022-08-16T00:47:06.211Z,5.80
2022-08-16T00:48:00.615Z,5.90
2022-08-16T00:48:59.590Z,5.80
2022-08-16T00:49:59.634Z,5.80
2022-08-16T00:50:59.709Z,5.40
2022-08-16T00:51:59.539Z,5.70
2022-08-16T00:52:59.933Z,5.50
2022-08-16T00:53:59.551Z,6.00
2022-08-16T00:54:59.622Z,5.90
2022-08-16T00:55:59.518Z,5.60
2022-08-16T00:56:59.995Z,5.70
2022-08-16T00:58:00.765Z,5.90
2022-08-16T00:59:01.235Z,6.10
2022-08-16T00:59:59.730Z,6.20
2022-08-16T01:00:59.467Z,5.60
2022-08-16T01:01:59.554Z,5.60
2022-08-16T01:02:59.433Z,5.70
2022-08-16T01:03:59.447Z,5.20
2022-08-16T01:05:10.625Z,6.00
2022-08-16T01:06:00.437Z,5.90
2022-08-16T01:07:02.302Z,6.30
2022-08-16T01:07:59.752Z,6.20
2022-08-16T01:09:00.218Z,6.30
2022-08-16T01:09:59.365Z,6.50
2022-08-16T01:11:00.149Z,5.80
2022-08-16T01:11:59.330Z,6.40
2022-08-16T01:13:00.229Z,6.70
2022-08-16T01:13:59.303Z,6.70
2022-08-16T01:14:59.383Z,6.20
2022-08-16T01:15:59.315Z,6.40
2022-08-16T01:16:59.271Z,6.90
2022-08-16T01:17:59.319Z,6.50
2022-08-16T01:18:59.276Z,6.40
2022-08-16T01:19:59.262Z,6.80
2022-08-16T01:20:59.265Z,6.60
2022-08-16T01:22:47.913Z,6.90
2022-08-16T01:23:00.447Z,6.60
2022-08-16T01:24:01.468Z,7.00
2022-08-16T01:24:59.278Z,6.70
2022-08-16T01:26:33.798Z,6.90
2022-08-16T01:27:03.687Z,6.70
2022-08-16T01:27:59.199Z,6.70
2022-08-16T01:28:59.142Z,6.90
2022-08-16T01:29:59.784Z,6.60
2022-08-16T01:30:59.134Z,6.90
2022-08-16T01:31:59.136Z,7.10
2022-08-16T01:33:02.413Z,7.00
2022-08-16T01:34:00.126Z,7.50
2022-08-16T01:34:59.131Z,7.20
2022-08-16T01:35:59.076Z,7.60
2022-08-16T01:36:59.054Z,7.70
2022-08-16T01:37:59.053Z,7.20
2022-08-16T01:38:59.134Z,7.50
2022-08-16T01:39:59.151Z,7.50
2022-08-16T01:41:02.073Z,7.20
2022-08-16T01:41:59.016Z,7.50
2022-08-16T01:42:58.992Z,7.90
2022-08-16T01:44:00.861Z,7.90
2022-08-16T01:44:59.077Z,7.50
2022-08-16T01:45:58.956Z,8.00
2022-08-16T01:46:58.958Z,6.90
2022-08-16T01:47:58.963Z,7.60
2022-08-16T01:48:58.931Z,7.40
2022-08-16T01:50:41.760Z,7.70
2022-08-16T01:51:09.032Z,7.60
2022-08-16T01:51:59.919Z,7.20
2022-08-16T01:52:58.956Z,7.30
2022-08-16T01:53:58.865Z,7.20
2022-08-16T01:54:59.411Z,6.50
2022-08-16T01:55:58.855Z,6.70
2022-08-16T01:56:58.875Z,6.90
2022-08-16T01:57:58.836Z,6.90
2022-08-16T01:58:58.835Z,7.00
2022-08-16T01:59:58.821Z,7.00
2022-08-16T02:00:58.835Z,6.90
2022-08-16T02:01:59.877Z,6.60
2022-08-16T02:02:58.776Z,6.50
2022-08-16T02:04:10.198Z,7.30
2022-08-16T02:04:59.769Z,7.30
2022-08-16T02:05:58.743Z,7.20
2022-08-16T02:06:58.741Z,7.10
2022-08-16T02:07:58.725Z,6.50
2022-08-16T02:08:58.750Z,7.20
2022-08-16T02:09:59.854Z,6.70
2022-08-16T02:10:58.700Z,7.40
2022-08-16T02:11:58.739Z,7.00
2022-08-16T02:13:00.607Z,7.30
2022-08-16T02:13:58.714Z,7.60
2022-08-16T02:14:59.517Z,7.30
2022-08-16T02:15:58.643Z,6.50
2022-08-16T02:16:58.643Z,7.40
2022-08-16T02:17:58.616Z,7.10
2022-08-16T02:18:58.659Z,7.00
2022-08-16T02:20:00.651Z,7.10
2022-08-16T02:20:58.600Z,7.10
2022-08-16T02:22:08.806Z,6.90
2022-08-16T02:22:59.711Z,6.70
2022-08-16T02:23:58.581Z,6.80
2022-08-16T02:24:58.602Z,6.80
2022-08-16T02:25:59.930Z,6.80
2022-08-16T02:26:58.542Z,6.90
2022-08-16T02:27:58.506Z,7.10
2022-08-16T02:28:58.518Z,7.40
2022-08-16T02:30:04.878Z,6.80
2022-08-16T02:30:59.508Z,6.50
2022-08-16T02:32:04.068Z,6.70
2022-08-16T02:32:59.454Z,6.70
2022-08-16T02:33:58.485Z,7.20
2022-08-16T02:34:58.494Z,6.60
2022-08-16T02:36:00.028Z,7.10
2022-08-16T02:36:58.443Z,6.50
2022-08-16T02:38:01.595Z,6.90
2022-08-16T02:38:59.402Z,6.30
2022-08-16T02:39:58.413Z,6.90
2022-08-16T02:40:59.050Z,6.50
2022-08-16T02:41:58.359Z,6.50
2022-08-16T02:42:58.351Z,6.60
2022-08-16T02:43:58.344Z,6.70
2022-08-16T02:44:58.457Z,6.10
2022-08-16T02:45:58.363Z,6.40
2022-08-16T02:46:58.347Z,6.60
2022-08-16T02:48:01.477Z,6.50
2022-08-16T02:49:00.165Z,6.60
2022-08-16T02:50:54.571Z,6.60
2022-08-16T02:51:10.322Z,6.50
2022-08-16T02:51:59.268Z,6.90
2022-08-16T02:52:58.242Z,6.70
2022-08-16T02:53:58.227Z,6.40
2022-08-16T02:54:58.276Z,6.50
2022-08-16T02:55:58.224Z,6.80
2022-08-16T02:56:58.210Z,6.60
2022-08-16T02:57:58.227Z,6.50
2022-08-16T02:58:58.214Z,6.90
2022-08-16T02:59:58.255Z,7.10
2022-08-16T03:00:58.263Z,6.90
2022-08-16T03:01:58.271Z,6.90
2022-08-16T03:02:58.155Z,7.00
2022-08-16T03:04:24.946Z,7.10
2022-08-16T03:04:59.194Z,6.60
2022-08-16T03:05:58.506Z,6.70
2022-08-16T03:06:58.102Z,6.60
2022-08-16T03:07:58.096Z,6.90
2022-08-16T03:08:58.089Z,6.50
2022-08-16T03:10:00.498Z,6.70
2022-08-16T03:10:59.386Z,6.70
2022-08-16T03:11:58.111Z,7.50
2022-08-16T03:12:58.431Z,6.90
2022-08-16T03:13:58.051Z,6.50
2022-08-16T03:14:58.043Z,6.60
2022-08-16T03:15:58.002Z,6.90
2022-08-16T03:16:59.331Z,6.60
2022-08-16T03:17:57.967Z,6.50
2022-08-16T03:18:58.004Z,6.40
2022-08-16T03:20:02.524Z,6.70
2022-08-16T03:20:58.937Z,6.70
2022-08-16T03:21:57.934Z,6.30
2022-08-16T03:22:57.919Z,6.20
2022-08-16T03:23:57.920Z,6.50
2022-08-16T03:24:57.965Z,6.60
2022-08-16T03:25:57.892Z,6.40
2022-08-16T03:26:58.782Z,6.50
2022-08-16T03:27:57.947Z,6.60
2022-08-16T03:28:57.902Z,6.30
2022-08-16T03:29:57.858Z,6.80
2022-08-16T03:30:57.867Z,6.90
2022-08-16T03:31:57.843Z,6.20
2022-08-16T03:32:57.830Z,6.80
2022-08-16T03:33:57.852Z,6.60
2022-08-16T03:34:57.847Z,6.50
2022-08-16T03:35:57.844Z,6.80
2022-08-16T03:36:57.764Z,7.40
2022-08-16T03:38:02.506Z,7.50
2022-08-16T03:38:58.761Z,6.90
2022-08-16T03:40:02.843Z,6.90
2022-08-16T03:40:58.755Z,7.50
2022-08-16T03:41:59.732Z,7.30
2022-08-16T03:43:02.115Z,8.20
2022-08-16T03:43:58.709Z,7.10
2022-08-16T03:45:03.638Z,7.60
2022-08-16T03:45:58.718Z,7.60
2022-08-16T03:46:58.317Z,7.80
2022-08-16T03:47:59.777Z,8.10
2022-08-16T03:48:57.743Z,7.70
2022-08-16T03:49:57.910Z,7.60
2022-08-16T03:51:00.183Z,8.10
2022-08-16T03:51:57.627Z,8.20
2022-08-16T03:53:03.111Z,7.70
2022-08-16T03:54:01.158Z,8.50
2022-08-16T03:54:59.287Z,7.90
2022-08-16T03:55:57.620Z,8.10
2022-08-16T03:56:58.683Z,8.30
2022-08-16T03:57:57.544Z,9.40
2022-08-16T03:58:57.527Z,7.90
2022-08-16T03:59:57.592Z,8.60
2022-08-16T04:00:59.418Z,8.80
2022-08-16T04:01:57.512Z,9.20
2022-08-16T04:02:57.500Z,9.00
2022-08-16T04:03:57.489Z,8.90
2022-08-16T04:04:57.514Z,9.50
2022-08-16T04:05:57.476Z,8.80
2022-08-16T04:06:57.497Z,9.30
2022-08-16T04:07:57.503Z,9.30
2022-08-16T04:08:57.468Z,9.90
2022-08-16T04:09:57.453Z,9.70
2022-08-16T04:10:58.003Z,9.80
2022-08-16T04:11:57.529Z,10.00
2022-08-16T04:13:01.932Z,9.50
2022-08-16T04:14:01.681Z,9.40
2022-08-16T04:14:58.445Z,9.20
2022-08-16T04:15:57.375Z,9.50
2022-08-16T04:16:57.396Z,9.60
2022-08-16T04:17:57.359Z,9.40
2022-08-16T04:19:02.245Z,9.20
2022-08-16T04:19:59.737Z,9.10
2022-08-16T04:20:57.318Z,9.80
2022-08-16T04:21:57.315Z,9.50
2022-08-16T04:22:57.341Z,9.50
2022-08-16T04:23:57.275Z,9.60
2022-08-16T04:24:59.405Z,9.10
2022-08-16T04:25:57.267Z,9.30
2022-08-16T04:26:57.267Z,9.40
2022-08-16T04:27:57.244Z,9.40
2022-08-16T04:29:20.988Z,9.10
2022-08-16T04:30:03.071Z,8.30
2022-08-16T04:30:58.186Z,9.20
2022-08-16T04:31:58.051Z,9.40
2022-08-16T04:32:57.187Z,9.70
2022-08-16T04:33:57.185Z,8.80
2022-08-16T04:34:57.172Z,8.80
2022-08-16T04:35:57.129Z,8.50
2022-08-16T04:36:57.122Z,9.60
2022-08-16T04:37:57.173Z,9.70
2022-08-16T04:38:57.117Z,10.10
2022-08-16T04:39:57.557Z,9.80
2022-08-16T04:40:57.150Z,9.90
2022-08-16T04:41:57.379Z,10.70
2022-08-16T04:42:57.094Z,10.40
2022-08-16T04:43:57.036Z,11.10
2022-08-16T04:44:57.074Z,11.60
2022-08-16T04:46:00.378Z,11.50
2022-08-16T04:47:02.846Z,11.20
2022-08-16T04:47:57.997Z,11.40
2022-08-16T04:48:57.001Z,12.30
2022-08-16T04:49:57.007Z,11.80
2022-08-16T04:50:56.989Z,11.10
2022-08-16T04:51:57.029Z,11.10
2022-08-16T04:52:56.989Z,11.10
2022-08-16T04:53:56.949Z,11.30
2022-08-16T04:54:56.988Z,11.30
2022-08-16T04:55:56.956Z,11.70
2022-08-16T04:56:56.908Z,12.50
2022-08-16T04:57:56.987Z,12.10
2022-08-16T04:58:57.824Z,12.90
2022-08-16T04:59:56.979Z,13.20
2022-08-16T05:00:56.895Z,13.20
2022-08-16T05:01:58.840Z,12.90
2022-08-16T05:02:58.816Z,12.80
2022-08-16T05:04:00.468Z,13.60
2022-08-16T05:04:56.909Z,13.60
2022-08-16T05:06:04.999Z,13.30
2022-08-16T05:06:57.797Z,13.50
2022-08-16T05:07:58.390Z,13.20
2022-08-16T05:08:56.800Z,13.00
2022-08-16T05:09:56.784Z,13.30
2022-08-16T05:10:59.847Z,13.50
2022-08-16T05:11:57.219Z,13.60
2022-08-16T05:12:56.760Z,13.50
2022-08-16T05:13:56.832Z,12.90
2022-08-16T05:15:02.112Z,13.80
2022-08-16T05:15:57.707Z,13.80
2022-08-16T05:16:56.711Z,13.40
2022-08-16T05:17:58.610Z,14.60
2022-08-16T05:18:57.012Z,13.00
2022-08-16T05:19:57.878Z,13.10
2022-08-16T05:21:06.537Z,13.20
2022-08-16T05:21:57.701Z,13.10
2022-08-16T05:22:56.615Z,13.30
2022-08-16T05:24:00.147Z,12.10
2022-08-16T05:24:56.676Z,13.90
2022-08-16T05:25:56.601Z,13.40
2022-08-16T05:26:56.781Z,12.60
2022-08-16T05:27:56.641Z,13.40
2022-08-16T05:28:56.558Z,13.80
2022-08-16T05:29:57.032Z,13.60
2022-08-16T05:30:56.549Z,13.60
2022-08-16T05:31:56.534Z,13.80
2022-08-16T05:32:56.513Z,13.80
2022-08-16T05:33:56.545Z,13.00
2022-08-16T05:34:56.546Z,12.70
2022-08-16T05:35:56.545Z,12.80
2022-08-16T05:36:56.528Z,14.40
2022-08-16T05:37:56.460Z,12.40
2022-08-16T05:38:56.440Z,12.80
2022-08-16T05:39:56.497Z,11.60
2022-08-16T05:40:59.760Z,12.50
2022-08-16T05:41:56.469Z,11.50
2022-08-16T05:42:56.431Z,11.20
2022-08-16T05:43:59.218Z,11.20
2022-08-16T05:44:56.421Z,11.70
2022-08-16T05:45:56.407Z,11.90
2022-08-16T05:46:56.411Z,11.50
2022-08-16T05:48:00.341Z,11.80
2022-08-16T05:49:01.764Z,10.00
2022-08-16T05:49:57.369Z,10.10
2022-08-16T05:50:56.318Z,11.20
2022-08-16T05:51:56.305Z,10.50
2022-08-16T05:52:56.299Z,11.20
2022-08-16T05:53:56.313Z,10.60
2022-08-16T05:55:01.026Z,9.80
2022-08-16T05:55:57.285Z,9.60
2022-08-16T05:56:56.260Z,9.10
2022-08-16T05:57:56.255Z,9.80
2022-08-16T05:58:56.234Z,9.10
2022-08-16T05:59:59.993Z,8.90
2022-08-16T06:00:56.228Z,9.20
2022-08-16T06:01:56.301Z,8.50
2022-08-16T06:02:56.201Z,8.20
2022-08-16T06:03:56.210Z,8.80
2022-08-16T06:04:56.252Z,8.70
2022-08-16T06:05:56.159Z,8.80
2022-08-16T06:06:57.449Z,9.50
2022-08-16T06:07:58.581Z,8.50
2022-08-16T06:08:56.129Z,8.50
2022-08-16T06:09:56.161Z,8.20
2022-08-16T06:11:09.805Z,8.30
2022-08-16T06:11:57.095Z,8.30
2022-08-16T06:12:56.217Z,7.30
2022-08-16T06:13:56.066Z,7.20
2022-08-16T06:14:56.096Z,7.40
2022-08-16T06:15:56.066Z,7.70
2022-08-16T06:16:56.035Z,7.50
2022-08-16T06:17:57.066Z,7.40
2022-08-16T06:18:56.026Z,7.20
2022-08-16T06:19:56.102Z,7.30
2022-08-16T06:20:56.173Z,7.20
2022-08-16T06:21:56.140Z,6.80
2022-08-16T06:23:03.068Z,6.30
2022-08-16T06:23:57.002Z,6.50
2022-08-16T06:24:56.018Z,6.80
2022-08-16T06:25:55.977Z,6.90
2022-08-16T06:26:58.023Z,6.30
2022-08-16T06:27:57.583Z,6.20
2022-08-16T06:28:55.926Z,6.60
2022-08-16T06:29:55.974Z,5.70
2022-08-16T06:30:56.018Z,6.40
2022-08-16T06:31:55.920Z,7.00
2022-08-16T06:32:55.883Z,6.40
2022-08-16T06:33:56.189Z,6.90
2022-08-16T06:35:02.094Z,6.00
2022-08-16T06:35:59.709Z,6.10
2022-08-16T06:36:59.262Z,6.50
2022-08-16T06:37:55.831Z,6.40
2022-08-16T06:38:56.935Z,6.40
2022-08-16T06:39:55.930Z,6.90
2022-08-16T06:40:55.788Z,6.60
2022-08-16T06:41:55.791Z,6.50
2022-08-16T06:42:57.638Z,6.80
2022-08-16T06:43:55.880Z,6.20
2022-08-16T06:44:55.884Z,6.10
2022-08-16T06:45:55.754Z,6.20
2022-08-16T06:46:55.788Z,6.20
2022-08-16T06:47:56.543Z,6.40
2022-08-16T06:48:55.760Z,5.90
2022-08-16T06:49:55.689Z,5.90
2022-08-16T06:50:55.695Z,6.20
2022-08-16T06:52:02.677Z,6.20
2022-08-16T06:52:58.413Z,5.70
2022-08-16T06:53:55.658Z,6.50
2022-08-16T06:54:55.661Z,6.90
2022-08-16T06:55:55.642Z,6.30
2022-08-16T06:56:55.640Z,6.30
2022-08-16T06:57:55.600Z,6.20
2022-08-16T06:58:55.593Z,5.50
2022-08-16T06:59:58.482Z,6.10
2022-08-16T07:00:55.631Z,6.30
2022-08-16T07:01:58.063Z,6.50
2022-08-16T07:02:55.865Z,5.70
2022-08-16T07:03:57.425Z,5.70
2022-08-16T07:04:55.562Z,5.90
2022-08-16T07:05:55.527Z,5.40
2022-08-16T07:06:55.526Z,5.80
2022-08-16T07:07:55.493Z,5.70
2022-08-16T07:08:55.500Z,5.30
2022-08-16T07:09:55.499Z,5.70
2022-08-16T07:10:55.488Z,5.70
2022-08-16T07:11:55.499Z,5.50
2022-08-16T07:13:03.413Z,5.50
2022-08-16T07:14:03.667Z,5.70
2022-08-16T07:15:00.773Z,5.80
2022-08-16T07:15:55.425Z,5.40
2022-08-16T07:16:59.440Z,5.80
2022-08-16T07:18:05.197Z,5.70
2022-08-16T07:18:59.415Z,5.30
2022-08-16T07:20:02.444Z,5.70
2022-08-16T07:21:01.611Z,5.60
2022-08-16T07:21:59.176Z,5.60
2022-08-16T07:22:58.974Z,5.10
2022-08-16T07:23:57.856Z,5.20
2022-08-16T07:24:56.359Z,4.90
2022-08-16T07:25:58.092Z,5.30
2022-08-16T07:26:57.679Z,5.00
2022-08-16T07:27:55.308Z,5.20
2022-08-16T07:28:55.367Z,5.10
2022-08-16T07:29:55.574Z,5.10
2022-08-16T07:30:55.411Z,5.30
2022-08-16T07:31:55.365Z,5.00
2022-08-16T07:32:55.470Z,5.00
2022-08-16T07:33:55.495Z,4.90
2022-08-16T07:34:58.234Z,4.90
2022-08-16T07:35:57.112Z,5.10
2022-08-16T07:37:18.000Z,4.80
2022-08-16T07:37:55.313Z,4.90
2022-08-16T07:38:55.400Z,4.70
2022-08-16T07:39:55.483Z,4.90
2022-08-16T07:41:09.606Z,5.00
2022-08-16T07:41:56.243Z,4.50
2022-08-16T07:42:55.280Z,4.50
2022-08-16T07:43:58.125Z,5.20
2022-08-16T07:46:38.822Z,4.40
2022-08-16T07:46:56.368Z,5.00
2022-08-16T07:47:55.187Z,4.40
2022-08-16T07:48:55.315Z,4.40
2022-08-16T07:49:58.089Z,4.70
2022-08-16T07:50:59.131Z,4.90
2022-08-16T07:51:56.153Z,5.20
2022-08-16T07:53:02.193Z,4.70
2022-08-16T07:54:10.716Z,4.90
2022-08-16T07:54:55.032Z,4.70
2022-08-16T07:55:55.067Z,4.40
2022-08-16T07:56:54.978Z,4.80
2022-08-16T07:58:03.716Z,4.60
2022-08-16T07:58:55.564Z,4.70
2022-08-16T07:59:57.407Z,4.90
2022-08-16T08:00:54.957Z,4.70
2022-08-16T08:02:01.704Z,4.60
2022-08-16T08:04:06.764Z,4.60
2022-08-16T08:04:55.899Z,4.60
2022-08-16T08:05:54.900Z,4.50
2022-08-16T08:06:54.858Z,4.50
2022-08-16T08:07:54.875Z,4.70
2022-08-16T08:08:57.381Z,4.20
2022-08-16T08:09:54.891Z,4.40
2022-08-16T08:13:16.341Z,4.30
2022-08-16T08:14:29.288Z,4.60
2022-08-16T08:15:25.347Z,4.90
2022-08-16T08:16:18.808Z,4.80
2022-08-16T08:17:16.010Z,4.60
2022-08-16T08:18:29.407Z,4.30
2022-08-16T08:19:16.921Z,4.30
2022-08-16T08:20:23.883Z,4.50
2022-08-16T08:21:16.894Z,4.40
2022-08-16T08:22:19.203Z,4.40
2022-08-16T08:24:37.625Z,4.30
2022-08-16T08:25:16.229Z,4.40
2022-08-16T08:26:17.898Z,4.50
2022-08-16T08:27:22.547Z,4.40
2022-08-16T08:28:16.922Z,4.50
2022-08-16T08:29:16.053Z,4.50
2022-08-16T08:30:49.206Z,4.70
2022-08-16T08:31:17.792Z,4.90
2022-08-16T08:32:56.993Z,4.90
2022-08-16T08:33:16.764Z,4.30
2022-08-16T08:34:15.768Z,4.60
2022-08-16T08:35:15.759Z,4.50
2022-08-16T08:36:21.662Z,4.80
2022-08-16T08:37:16.800Z,4.40
2022-08-16T08:38:15.781Z,4.20
2022-08-16T08:39:16.742Z,4.90
2022-08-16T08:40:16.455Z,4.50
2022-08-16T08:42:34.680Z,4.40
2022-08-16T08:43:41.283Z,4.40
2022-08-16T08:44:32.500Z,4.20
2022-08-16T08:45:49.179Z,4.20
2022-08-16T08:46:35.616Z,4.00
2022-08-16T08:47:31.504Z,4.50
2022-08-16T08:48:34.889Z,4.30
2022-08-16T08:49:50.511Z,4.40
2022-08-16T08:50:32.539Z,4.40
2022-08-16T08:51:36.701Z,4.30
2022-08-16T08:52:37.732Z,4.50
2022-08-16T08:53:59.951Z,4.10
2022-08-16T08:54:31.406Z,4.50
2022-08-16T08:55:31.363Z,4.00
2022-08-16T08:56:32.329Z,4.10
2022-08-16T08:57:31.320Z,4.20
2022-08-16T08:58:34.533Z,4.30
2022-08-16T08:59:31.312Z,4.20
2022-08-16T09:00:51.242Z,3.90
2022-08-16T09:01:56.759Z,4.00
2022-08-16T09:02:32.270Z,4.20
2022-08-16T09:03:32.485Z,3.70
2022-08-16T09:04:31.291Z,4.20
2022-08-16T09:05:35.772Z,4.60
2022-08-16T09:06:32.269Z,3.90
2022-08-16T09:07:31.220Z,4.20
2022-08-16T09:08:32.207Z,3.90
2022-08-16T09:09:34.381Z,4.30
2022-08-16T09:10:56.739Z,3.90
2022-08-16T09:11:40.697Z,4.00
2022-08-16T09:12:36.135Z,3.90
2022-08-16T09:13:32.851Z,4.00
2022-08-16T09:14:31.154Z,4.00
2022-08-16T09:15:31.165Z,3.80
2022-08-16T09:17:01.086Z,3.60
2022-08-16T09:17:48.751Z,3.50
2022-08-16T09:18:37.326Z,4.00
2022-08-16T09:19:32.866Z,3.80
2022-08-16T09:20:31.079Z,4.10
2022-08-16T09:21:31.356Z,3.80
2022-08-16T09:22:31.171Z,4.00
2022-08-16T09:23:31.060Z,5.50
2022-08-16T09:24:46.370Z,6.30
2022-08-16T09:25:34.333Z,4.90
2022-08-16T09:26:44.198Z,4.00
2022-08-16T09:27:56.663Z,4.10
2022-08-16T09:29:15.254Z,3.80
2022-08-16T09:29:44.931Z,3.60
2022-08-16T09:30:36.436Z,3.40
2022-08-16T09:31:31.978Z,3.70
2022-08-16T09:32:31.327Z,4.00
2022-08-16T09:33:39.896Z,4.40
2022-08-16T09:34:31.951Z,4.00
2022-08-16T09:35:30.965Z,3.70
2022-08-16T09:36:37.541Z,3.90
2022-08-16T09:37:36.578Z,3.80
2022-08-16T09:38:31.866Z,3.80
2022-08-16T09:40:32.819Z,3.50
2022-08-16T09:41:20.937Z,3.80
2022-08-16T09:42:20.934Z,3.90
2022-08-16T09:43:53.370Z,4.00
2022-08-16T09:45:09.759Z,3.80
2022-08-16T09:45:22.157Z,3.80
2022-08-16T09:46:44.985Z,4.40
2022-08-16T09:47:23.582Z,3.70
2022-08-16T09:48:37.149Z,3.80
2022-08-16T09:49:21.886Z,3.90
2022-08-16T09:50:22.538Z,3.70
2022-08-16T09:51:23.330Z,4.00
2022-08-16T09:52:23.892Z,4.50
2022-08-16T09:53:26.648Z,4.10
2022-08-16T09:54:21.137Z,4.30
2022-08-16T09:55:20.788Z,4.30
2022-08-16T09:56:20.752Z,4.20
2022-08-16T09:57:22.768Z,4.10
2022-08-16T09:58:41.318Z,3.70
2022-08-16T09:59:22.253Z,3.70
2022-08-16T10:00:44.441Z,3.50
2022-08-16T10:01:21.728Z,3.50
2022-08-16T10:02:34.881Z,3.60
2022-08-16T10:03:21.704Z,3.60
2022-08-16T10:04:33.092Z,3.80
2022-08-16T10:05:21.667Z,3.80
2022-08-16T10:06:20.693Z,3.60
2022-08-16T10:07:20.643Z,3.30
2022-08-16T10:08:26.213Z,3.70
2022-08-16T10:09:21.654Z,3.80
2022-08-16T10:10:31.007Z,3.80
2022-08-16T10:11:24.616Z,3.50
2022-08-16T10:12:29.657Z,3.40
2022-08-16T10:13:20.578Z,3.40
2022-08-16T10:14:24.883Z,3.80
2022-08-16T10:15:22.336Z,3.50
2022-08-16T10:16:22.134Z,3.90
2022-08-16T10:17:20.747Z,3.60
2022-08-16T10:19:02.242Z,3.90
2022-08-16T10:19:27.149Z,3.90
2022-08-16T10:20:24.391Z,4.00
2022-08-16T10:21:42.426Z,3.90
2022-08-16T10:22:22.954Z,3.80
2022-08-16T10:23:20.493Z,3.60
2022-08-16T10:24:27.984Z,3.90
2022-08-16T10:27:16.755Z,4.00
2022-08-16T10:27:18.204Z,3.70
2022-08-16T10:27:26.813Z,4.00
2022-08-16T10:28:29.985Z,3.80
2022-08-16T10:29:21.091Z,3.80
2022-08-16T10:30:24.882Z,4.00
2022-08-16T10:31:43.337Z,4.00
2022-08-16T10:32:21.428Z,3.90
2022-08-16T10:33:20.395Z,3.90
2022-08-16T10:34:30.718Z,3.60
2022-08-16T10:35:21.673Z,3.60
2022-08-16T10:36:38.162Z,3.70
2022-08-16T10:37:32.508Z,3.80
2022-08-16T10:38:36.799Z,4.00
2022-08-16T10:39:20.337Z,3.70
2022-08-16T10:40:29.154Z,3.90
2022-08-16T10:41:25.172Z,3.70
2022-08-16T10:42:20.514Z,3.70
2022-08-16T10:43:20.288Z,3.50
2022-08-16T10:44:20.280Z,3.40
2022-08-16T10:45:20.254Z,3.50
2022-08-16T10:46:39.358Z,3.40
2022-08-16T10:47:21.234Z,3.70
2022-08-16T10:48:27.411Z,3.30
2022-08-16T10:49:21.234Z,3.80
2022-08-16T10:50:20.512Z,3.40
2022-08-16T10:51:20.191Z,3.70
2022-08-16T10:52:21.268Z,3.50
2022-08-16T10:53:21.725Z,4.80
2022-08-16T10:54:28.523Z,3.80
2022-08-16T10:55:40.848Z,3.60
2022-08-16T10:56:56.224Z,3.50
2022-08-16T10:57:21.131Z,3.60
2022-08-16T10:58:20.165Z,3.60
2022-08-16T10:59:44.646Z,3.10
2022-08-16T11:00:22.765Z,3.30
2022-08-16T11:01:43.369Z,3.40
2022-08-16T11:02:57.694Z,3.20
2022-08-16T11:05:05.598Z,3.70
2022-08-16T11:05:21.086Z,3.40
2022-08-16T11:06:21.564Z,3.50
2022-08-16T11:08:31.316Z,3.30
2022-08-16T11:11:30.635Z,3.20
2022-08-16T11:12:30.638Z,3.50
2022-08-16T11:14:38.461Z,3.60
2022-08-16T11:15:30.650Z,3.80
2022-08-16T11:17:32.767Z,3.40
2022-08-16T11:19:03.269Z,3.60
2022-08-16T11:19:31.554Z,3.40
2022-08-16T11:20:41.929Z,3.30
2022-08-16T11:21:31.574Z,3.20
2022-08-16T11:22:46.911Z,3.50
2022-08-16T11:23:39.489Z,3.20
2022-08-16T11:24:42.820Z,3.40
2022-08-16T11:26:31.488Z,3.30
2022-08-16T11:27:35.684Z,3.10
2022-08-16T11:29:31.537Z,3.20
2022-08-16T11:30:39.420Z,3.00
2022-08-16T11:31:32.911Z,3.10
2022-08-16T11:33:55.043Z,3.40
2022-08-16T11:34:50.258Z,3.20
2022-08-16T11:36:31.446Z,3.00
2022-08-16T11:38:04.594Z,3.10
2022-08-16T11:38:51.225Z,3.00
2022-08-16T11:39:31.900Z,3.00
2022-08-16T11:40:32.746Z,3.50
2022-08-16T11:41:32.357Z,2.90
2022-08-16T11:42:35.676Z,3.20
2022-08-16T11:43:31.319Z,3.00
2022-08-16T11:44:52.266Z,3.50
2022-08-16T11:45:33.929Z,3.30
2022-08-16T11:46:44.162Z,3.10
2022-08-16T11:47:31.343Z,3.50
2022-08-16T11:48:30.273Z,3.20
2022-08-16T11:49:32.979Z,2.80
2022-08-16T11:51:41.203Z,2.90
2022-08-16T11:52:30.282Z,3.00
2022-08-16T11:53:30.284Z,2.80
2022-08-16T11:54:34.287Z,3.00
2022-08-16T11:55:31.402Z,3.50
2022-08-16T11:56:53.207Z,3.60
2022-08-16T11:57:31.195Z,2.90
2022-08-16T11:58:33.314Z,3.20
2022-08-16T12:00:54.002Z,3.20
2022-08-16T12:01:44.185Z,3.20
2022-08-16T12:02:33.080Z,2.90
2022-08-16T12:03:35.422Z,3.00
2022-08-16T12:04:31.242Z,3.00
2022-08-16T12:05:30.156Z,2.90
2022-08-16T12:06:30.888Z,2.70
2022-08-16T12:07:33.313Z,3.00
2022-08-16T12:08:44.592Z,3.10
2022-08-16T12:09:30.085Z,2.80
2022-08-16T12:10:30.057Z,2.80
2022-08-16T12:11:31.462Z,2.70
2022-08-16T12:12:30.074Z,2.60
2022-08-16T12:13:30.159Z,2.80
2022-08-16T12:14:35.035Z,2.70
2022-08-16T12:15:31.188Z,2.80
2022-08-16T12:16:34.862Z,2.80
2022-08-16T12:17:31.957Z,2.70
2022-08-16T12:18:30.015Z,2.70
2022-08-16T12:19:34.058Z,2.80
2022-08-16T12:20:30.982Z,2.80
2022-08-16T12:21:35.925Z,2.90
2022-08-16T12:22:33.872Z,2.70
2022-08-16T12:23:29.984Z,2.90
2022-08-16T12:24:29.988Z,3.20
2022-08-16T12:25:30.097Z,2.60
2022-08-16T12:26:43.169Z,2.90
2022-08-16T12:27:31.179Z,2.70
2022-08-16T12:28:36.846Z,2.70
2022-08-16T12:29:30.894Z,2.80
2022-08-16T12:30:32.148Z,2.70
2022-08-16T12:31:30.049Z,2.70
2022-08-16T12:32:38.137Z,2.80
2022-08-16T12:33:30.853Z,2.60
2022-08-16T12:34:37.582Z,2.80
2022-08-16T12:35:45.551Z,2.80
2022-08-16T12:36:30.126Z,2.50
2022-08-16T12:37:29.813Z,2.70
2022-08-16T12:38:41.425Z,3.20
2022-08-16T12:39:30.900Z,2.50
2022-08-16T12:40:30.051Z,2.60
2022-08-16T12:41:29.771Z,2.80
2022-08-16T12:42:35.169Z,2.50
2022-08-16T12:43:37.967Z,2.50
2022-08-16T12:44:31.419Z,2.60
2022-08-16T12:45:30.731Z,2.50
2022-08-16T12:46:31.042Z,2.90
2022-08-16T12:47:29.718Z,2.70
2022-08-16T12:48:33.771Z,2.40
2022-08-16T12:49:30.749Z,2.60
2022-08-16T12:50:33.185Z,2.50
2022-08-16T12:51:32.965Z,2.60
2022-08-16T12:52:40.019Z,2.40
2022-08-16T12:53:31.995Z,2.50
2022-08-16T12:54:31.694Z,2.70
2022-08-16T12:55:33.397Z,2.40
2022-08-16T12:56:29.661Z,2.60
2022-08-16T12:57:36.800Z,2.50
2022-08-16T12:58:47.490Z,2.50
2022-08-16T12:59:31.159Z,2.80
2022-08-16T13:00:33.469Z,2.60
2022-08-16T13:01:40.623Z,2.20
2022-08-16T13:02:33.275Z,2.60
2022-08-16T13:03:32.194Z,2.50
2022-08-16T13:04:33.143Z,2.50
2022-08-16T13:05:29.629Z,2.40
2022-08-16T13:06:33.479Z,2.70
2022-08-16T13:07:29.610Z,2.80
2022-08-16T13:08:30.983Z,2.50
2022-08-16T13:09:32.069Z,2.70
2022-08-16T13:10:45.041Z,2.60
2022-08-16T13:11:30.506Z,2.90
2022-08-16T13:12:29.484Z,2.60
2022-08-16T13:13:29.732Z,2.60
2022-08-16T13:14:32.181Z,2.70
2022-08-16T13:15:30.301Z,2.50
2022-08-16T13:16:29.578Z,2.40
2022-08-16T13:17:29.977Z,2.60
2022-08-16T13:18:36.150Z,2.70
2022-08-16T13:20:06.022Z,2.60
2022-08-16T13:20:30.410Z,2.50
2022-08-16T13:21:29.481Z,2.30
2022-08-16T13:22:29.454Z,2.40
2022-08-16T13:23:29.395Z,2.50
2022-08-16T13:24:34.676Z,2.80
2022-08-16T13:25:31.035Z,2.50
2022-08-16T13:26:29.344Z,2.80
2022-08-16T13:28:02.148Z,2.40
2022-08-16T13:28:46.237Z,2.50
2022-08-16T13:29:40.088Z,2.70
2022-08-16T13:30:36.155Z,2.60
2022-08-16T13:31:30.376Z,2.40
2022-08-16T13:32:39.405Z,2.40
2022-08-16T13:33:30.952Z,2.80
2022-08-16T13:34:29.374Z,2.60